sensor_id;sensor_type;location;lat;lon;timestamp;temperature;humidity
9640;DHT22;51745;50.872;4.732;2023-04-15T00:00:47;7.40;99.90
9640;DHT22;51745;50.872;4.732;2023-04-15T00:03:36;10.70;99.90
9640;DHT22;51745;50.872;4.732;2023-04-15T00:06:24;7.40;99.90
9640;DHT22;51745;50.872;4.732;2023-04-15T00:09:12;7.80;99.90
9640;DHT22;51745;50.872;4.732;2023-04-15T00:12:00;7.40;99.90
9640;DHT22;51745;50.872;4.732;2023-04-15T00:14:48;7.30;99.90
9640;DHT22;51745;50.872;4.732;2023-04-15T00:17:37;7.40;99.90
9640;DHT22;51745;50.872;4.732;2023-04-15T00:20:24;7.20;99.90
9640;DHT22;51745;50.872;4.732;2023-04-15T00:23:13;9.40;99.90
9640;DHT22;51745;50.872;4.732;2023-04-15T00:26:02;7.40;99.90
9640;DHT22;51745;50.872;4.732;2023-04-15T00:28:50;8.70;99.90
9640;DHT22;51745;50.872;4.732;2023-04-15T00:31:37;7.60;99.90
9640;DHT22;51745;50.872;4.732;2023-04-15T00:34:25;7.40;99.90
9640;DHT22;51745;50.872;4.732;2023-04-15T00:37:13;7.40;99.90
9640;DHT22;51745;50.872;4.732;2023-04-15T00:40:00;7.40;99.90
9640;DHT22;51745;50.872;4.732;2023-04-15T00:42:50;7.40;99.90
9640;DHT22;51745;50.872;4.732;2023-04-15T00:45:38;7.40;99.90
9640;DHT22;51745;50.872;4.732;2023-04-15T00:48:27;7.30;99.90
9640;DHT22;51745;50.872;4.732;2023-04-15T00:51:15;7.40;99.90
9640;DHT22;51745;50.872;4.732;2023-04-15T00:54:03;7.40;99.90
9640;DHT22;51745;50.872;4.732;2023-04-15T00:56:50;7.40;99.90
9640;DHT22;51745;50.872;4.732;2023-04-15T00:59:39;7.40;99.90
9640;DHT22;51745;50.872;4.732;2023-04-15T01:02:27;7.40;99.90
9640;DHT22;51745;50.872;4.732;2023-04-15T01:05:15;7.40;99.90
9640;DHT22;51745;50.872;4.732;2023-04-15T01:08:05;7.40;99.90
9640;DHT22;51745;50.872;4.732;2023-04-15T01:10:52;7.10;99.90
9640;DHT22;51745;50.872;4.732;2023-04-15T01:13:40;7.10;99.90
9640;DHT22;51745;50.872;4.732;2023-04-15T01:16:29;7.40;99.90
9640;DHT22;51745;50.872;4.732;2023-04-15T01:19:18;7.40;99.90
9640;DHT22;51745;50.872;4.732;2023-04-15T01:22:06;7.50;99.90
9640;DHT22;51745;50.872;4.732;2023-04-15T01:24:57;7.50;99.90
9640;DHT22;51745;50.872;4.732;2023-04-15T01:27:50;7.70;99.90
9640;DHT22;51745;50.872;4.732;2023-04-15T01:30:39;7.50;99.90
9640;DHT22;51745;50.872;4.732;2023-04-15T01:33:27;7.60;99.90
9640;DHT22;51745;50.872;4.732;2023-04-15T01:36:15;7.70;99.90
9640;DHT22;51745;50.872;4.732;2023-04-15T01:39:02;7.60;99.90
9640;DHT22;51745;50.872;4.732;2023-04-15T01:41:50;7.60;99.90
9640;DHT22;51745;50.872;4.732;2023-04-15T01:44:39;7.60;99.90
9640;DHT22;51745;50.872;4.732;2023-04-15T01:47:30;7.60;99.90
9640;DHT22;51745;50.872;4.732;2023-04-15T01:50:17;7.50;99.90
9640;DHT22;51745;50.872;4.732;2023-04-15T01:53:06;7.50;99.90
9640;DHT22;51745;50.872;4.732;2023-04-15T01:55:54;7.50;99.90
9640;DHT22;51745;50.872;4.732;2023-04-15T01:58:41;7.50;99.90
9640;DHT22;51745;50.872;4.732;2023-04-15T02:01:30;7.60;99.90
9640;DHT22;51745;50.872;4.732;2023-04-15T02:04:18;7.60;99.90
9640;DHT22;51745;50.872;4.732;2023-04-15T02:07:11;8.00;99.90
9640;DHT22;51745;50.872;4.732;2023-04-15T02:10:00;7.70;99.90
9640;DHT22;51745;50.872;4.732;2023-04-15T02:12:49;7.70;99.90
9640;DHT22;51745;50.872;4.732;2023-04-15T02:15:36;7.50;99.90
9640;DHT22;51745;50.872;4.732;2023-04-15T02:18:26;7.80;99.90
9640;DHT22;51745;50.872;4.732;2023-04-15T02:21:14;9.10;99.90
9640;DHT22;51745;50.872;4.732;2023-04-15T02:24:03;7.00;99.90
9640;DHT22;51745;50.872;4.732;2023-04-15T02:26:52;7.90;99.90
9640;DHT22;51745;50.872;4.732;2023-04-15T02:29:42;7.90;99.90
9640;DHT22;51745;50.872;4.732;2023-04-15T02:32:29;8.60;99.90
9640;DHT22;51745;50.872;4.732;2023-04-15T02:35:18;7.80;99.90
9640;DHT22;51745;50.872;4.732;2023-04-15T02:38:06;8.00;99.90
9640;DHT22;51745;50.872;4.732;2023-04-15T02:40:53;8.00;99.90
9640;DHT22;51745;50.872;4.732;2023-04-15T02:43:41;8.10;99.90
9640;DHT22;51745;50.872;4.732;2023-04-15T02:46:29;8.10;99.90
9640;DHT22;51745;50.872;4.732;2023-04-15T02:49:17;10.70;99.90
9640;DHT22;51745;50.872;4.732;2023-04-15T02:52:06;8.00;99.90
9640;DHT22;51745;50.872;4.732;2023-04-15T02:54:55;8.50;99.90
9640;DHT22;51745;50.872;4.732;2023-04-15T02:57:46;8.00;99.90
9640;DHT22;51745;50.872;4.732;2023-04-15T03:00:33;7.80;99.90
9640;DHT22;51745;50.872;4.732;2023-04-15T03:03:21;7.80;99.90
9640;DHT22;51745;50.872;4.732;2023-04-15T03:06:09;7.70;99.90
9640;DHT22;51745;50.872;4.732;2023-04-15T03:08:58;7.60;99.90
9640;DHT22;51745;50.872;4.732;2023-04-15T03:11:51;7.70;99.90
9640;DHT22;51745;50.872;4.732;2023-04-15T03:14:40;7.50;99.90
9640;DHT22;51745;50.872;4.732;2023-04-15T03:17:28;7.50;99.90
9640;DHT22;51745;50.872;4.732;2023-04-15T03:20:16;7.50;99.90
9640;DHT22;51745;50.872;4.732;2023-04-15T03:23:06;7.40;99.90
9640;DHT22;51745;50.872;4.732;2023-04-15T03:25:55;7.30;99.90
9640;DHT22;51745;50.872;4.732;2023-04-15T03:28:46;10.80;99.90
9640;DHT22;51745;50.872;4.732;2023-04-15T03:31:35;7.30;99.90
9640;DHT22;51745;50.872;4.732;2023-04-15T03:34:23;7.20;99.90
9640;DHT22;51745;50.872;4.732;2023-04-15T03:37:10;5.90;99.90
9640;DHT22;51745;50.872;4.732;2023-04-15T03:39:59;7.10;99.90
9640;DHT22;51745;50.872;4.732;2023-04-15T03:42:47;7.10;99.90
9640;DHT22;51745;50.872;4.732;2023-04-15T03:45:35;7.10;99.90
9640;DHT22;51745;50.872;4.732;2023-04-15T03:48:24;7.10;99.90
9640;DHT22;51745;50.872;4.732;2023-04-15T03:51:12;7.00;99.90
9640;DHT22;51745;50.872;4.732;2023-04-15T03:53:59;7.00;99.90
9640;DHT22;51745;50.872;4.732;2023-04-15T03:56:47;6.90;99.90
9640;DHT22;51745;50.872;4.732;2023-04-15T03:59:36;7.00;99.90
9640;DHT22;51745;50.872;4.732;2023-04-15T04:02:24;7.10;99.90
9640;DHT22;51745;50.872;4.732;2023-04-15T04:05:13;7.00;99.90
9640;DHT22;51745;50.872;4.732;2023-04-15T04:08:01;7.10;99.90
9640;DHT22;51745;50.872;4.732;2023-04-15T04:10:48;7.00;99.90
9640;DHT22;51745;50.872;4.732;2023-04-15T04:13:36;7.00;99.90
9640;DHT22;51745;50.872;4.732;2023-04-15T04:16:25;7.00;99.90
9640;DHT22;51745;50.872;4.732;2023-04-15T04:19:13;7.00;99.90
9640;DHT22;51745;50.872;4.732;2023-04-15T04:22:04;7.10;99.90
9640;DHT22;51745;50.872;4.732;2023-04-15T04:24:52;7.20;99.90
9640;DHT22;51745;50.872;4.732;2023-04-15T04:27:40;6.20;99.90
9640;DHT22;51745;50.872;4.732;2023-04-15T04:30:29;5.70;99.90
9640;DHT22;51745;50.872;4.732;2023-04-15T04:33:20;5.70;99.90
9640;DHT22;51745;50.872;4.732;2023-04-15T04:36:07;8.10;99.90
9640;DHT22;51745;50.872;4.732;2023-04-15T04:38:55;7.40;99.90
9640;DHT22;51745;50.872;4.732;2023-04-15T04:41:43;7.40;99.90
9640;DHT22;51745;50.872;4.732;2023-04-15T04:44:31;10.20;99.90
9640;DHT22;51745;50.872;4.732;2023-04-15T04:47:19;7.30;99.90
9640;DHT22;51745;50.872;4.732;2023-04-15T04:50:09;7.30;99.90
9640;DHT22;51745;50.872;4.732;2023-04-15T04:52:57;8.20;99.90
9640;DHT22;51745;50.872;4.732;2023-04-15T04:55:46;7.30;99.90
9640;DHT22;51745;50.872;4.732;2023-04-15T04:58:33;7.30;99.90
9640;DHT22;51745;50.872;4.732;2023-04-15T05:01:21;7.30;99.90
9640;DHT22;51745;50.872;4.732;2023-04-15T05:04:09;5.40;99.90
9640;DHT22;51745;50.872;4.732;2023-04-15T05:06:59;7.40;99.90
9640;DHT22;51745;50.872;4.732;2023-04-15T05:09:47;7.60;99.90
9640;DHT22;51745;50.872;4.732;2023-04-15T05:12:35;7.50;99.90
9640;DHT22;51745;50.872;4.732;2023-04-15T05:15:24;7.50;99.90
9640;DHT22;51745;50.872;4.732;2023-04-15T05:18:12;7.30;99.90
9640;DHT22;51745;50.872;4.732;2023-04-15T05:21:00;7.50;99.90
9640;DHT22;51745;50.872;4.732;2023-04-15T05:23:49;7.60;99.90
9640;DHT22;51745;50.872;4.732;2023-04-15T05:26:37;7.80;99.90
9640;DHT22;51745;50.872;4.732;2023-04-15T05:29:24;7.60;99.90
9640;DHT22;51745;50.872;4.732;2023-04-15T05:32:12;8.70;99.90
9640;DHT22;51745;50.872;4.732;2023-04-15T05:35:00;7.70;99.90
9640;DHT22;51745;50.872;4.732;2023-04-15T05:37:48;7.70;99.90
9640;DHT22;51745;50.872;4.732;2023-04-15T05:40:37;7.70;99.90
9640;DHT22;51745;50.872;4.732;2023-04-15T05:43:24;7.80;99.90
9640;DHT22;51745;50.872;4.732;2023-04-15T05:46:12;7.70;99.90
9640;DHT22;51745;50.872;4.732;2023-04-15T05:49:01;7.70;99.90
9640;DHT22;51745;50.872;4.732;2023-04-15T05:51:49;7.80;99.90
9640;DHT22;51745;50.872;4.732;2023-04-15T05:54:37;7.50;99.90
9640;DHT22;51745;50.872;4.732;2023-04-15T05:57:27;8.00;99.90
9640;DHT22;51745;50.872;4.732;2023-04-15T06:00:16;7.90;99.90
9640;DHT22;51745;50.872;4.732;2023-04-15T06:03:04;7.90;99.90
9640;DHT22;51745;50.872;4.732;2023-04-15T06:05:53;7.90;99.90
9640;DHT22;51745;50.872;4.732;2023-04-15T06:08:41;7.90;99.90
9640;DHT22;51745;50.872;4.732;2023-04-15T06:11:29;7.90;99.90
9640;DHT22;51745;50.872;4.732;2023-04-15T06:14:18;7.90;99.90
9640;DHT22;51745;50.872;4.732;2023-04-15T06:17:07;8.00;99.90
9640;DHT22;51745;50.872;4.732;2023-04-15T06:19:55;8.10;99.90
9640;DHT22;51745;50.872;4.732;2023-04-15T06:22:48;8.10;99.90
9640;DHT22;51745;50.872;4.732;2023-04-15T06:25:36;8.10;99.90
9640;DHT22;51745;50.872;4.732;2023-04-15T06:28:24;8.20;99.90
9640;DHT22;51745;50.872;4.732;2023-04-15T06:31:16;8.30;99.90
9640;DHT22;51745;50.872;4.732;2023-04-15T06:34:05;8.40;99.90
9640;DHT22;51745;50.872;4.732;2023-04-15T06:36:54;8.50;99.90
9640;DHT22;51745;50.872;4.732;2023-04-15T06:39:42;7.80;99.90
9640;DHT22;51745;50.872;4.732;2023-04-15T06:42:30;8.60;99.90
9640;DHT22;51745;50.872;4.732;2023-04-15T06:45:18;8.70;99.90
9640;DHT22;51745;50.872;4.732;2023-04-15T06:48:08;8.80;99.90
9640;DHT22;51745;50.872;4.732;2023-04-15T06:50:56;8.90;99.90
9640;DHT22;51745;50.872;4.732;2023-04-15T06:53:44;9.10;99.90
9640;DHT22;51745;50.872;4.732;2023-04-15T06:56:32;8.90;99.90
9640;DHT22;51745;50.872;4.732;2023-04-15T06:59:19;9.00;99.90
9640;DHT22;51745;50.872;4.732;2023-04-15T07:02:07;9.20;99.90
9640;DHT22;51745;50.872;4.732;2023-04-15T07:04:59;9.20;99.90
9640;DHT22;51745;50.872;4.732;2023-04-15T07:07:46;9.30;99.90
9640;DHT22;51745;50.872;4.732;2023-04-15T07:10:35;9.30;99.90
9640;DHT22;51745;50.872;4.732;2023-04-15T07:13:23;9.40;99.90
9640;DHT22;51745;50.872;4.732;2023-04-15T07:16:16;9.40;99.90
9640;DHT22;51745;50.872;4.732;2023-04-15T07:19:08;9.30;99.90
9640;DHT22;51745;50.872;4.732;2023-04-15T07:21:57;9.40;99.90
9640;DHT22;51745;50.872;4.732;2023-04-15T07:24:46;9.50;99.90
9640;DHT22;51745;50.872;4.732;2023-04-15T07:27:34;9.60;99.90
9640;DHT22;51745;50.872;4.732;2023-04-15T07:30:22;9.80;99.90
9640;DHT22;51745;50.872;4.732;2023-04-15T07:33:11;9.90;99.90
9640;DHT22;51745;50.872;4.732;2023-04-15T07:35:59;10.30;99.90
9640;DHT22;51745;50.872;4.732;2023-04-15T07:38:49;10.20;99.90
9640;DHT22;51745;50.872;4.732;2023-04-15T07:41:37;10.30;99.90
9640;DHT22;51745;50.872;4.732;2023-04-15T07:44:25;10.40;99.90
9640;DHT22;51745;50.872;4.732;2023-04-15T07:47:13;10.50;99.90
9640;DHT22;51745;50.872;4.732;2023-04-15T07:50:01;10.60;99.90
9640;DHT22;51745;50.872;4.732;2023-04-15T07:52:49;10.70;99.90
9640;DHT22;51745;50.872;4.732;2023-04-15T07:55:39;10.60;99.90
9640;DHT22;51745;50.872;4.732;2023-04-15T07:58:27;10.70;99.90
9640;DHT22;51745;50.872;4.732;2023-04-15T08:01:14;10.90;99.90
9640;DHT22;51745;50.872;4.732;2023-04-15T08:04:02;11.00;99.90
9640;DHT22;51745;50.872;4.732;2023-04-15T08:06:50;11.10;99.90
9640;DHT22;51745;50.872;4.732;2023-04-15T08:09:38;11.30;99.90
9640;DHT22;51745;50.872;4.732;2023-04-15T08:12:27;11.40;99.90
9640;DHT22;51745;50.872;4.732;2023-04-15T08:15:14;11.70;99.90
9640;DHT22;51745;50.872;4.732;2023-04-15T08:18:02;11.70;99.90
9640;DHT22;51745;50.872;4.732;2023-04-15T08:20:50;11.80;99.90
9640;DHT22;51745;50.872;4.732;2023-04-15T08:23:40;11.70;99.90
9640;DHT22;51745;50.872;4.732;2023-04-15T08:26:28;11.80;99.90
9640;DHT22;51745;50.872;4.732;2023-04-15T08:29:17;11.70;99.90
9640;DHT22;51745;50.872;4.732;2023-04-15T08:32:04;11.90;99.90
9640;DHT22;51745;50.872;4.732;2023-04-15T08:34:53;11.80;99.90
9640;DHT22;51745;50.872;4.732;2023-04-15T08:37:41;12.00;99.90
9640;DHT22;51745;50.872;4.732;2023-04-15T08:40:32;12.00;99.90
9640;DHT22;51745;50.872;4.732;2023-04-15T08:43:23;12.00;99.90
9640;DHT22;51745;50.872;4.732;2023-04-15T08:46:16;12.10;99.90
9640;DHT22;51745;50.872;4.732;2023-04-15T08:49:04;12.30;99.90
9640;DHT22;51745;50.872;4.732;2023-04-15T08:51:52;12.40;99.90
9640;DHT22;51745;50.872;4.732;2023-04-15T08:54:41;12.30;99.90
9640;DHT22;51745;50.872;4.732;2023-04-15T08:57:29;12.40;99.90
9640;DHT22;51745;50.872;4.732;2023-04-15T09:00:18;12.70;99.90
9640;DHT22;51745;50.872;4.732;2023-04-15T09:03:08;11.30;99.90
9640;DHT22;51745;50.872;4.732;2023-04-15T09:05:56;12.90;99.90
9640;DHT22;51745;50.872;4.732;2023-04-15T09:08:46;12.90;99.90
9640;DHT22;51745;50.872;4.732;2023-04-15T09:11:34;13.00;99.90
9640;DHT22;51745;50.872;4.732;2023-04-15T09:14:22;13.30;99.90
9640;DHT22;51745;50.872;4.732;2023-04-15T09:17:12;13.30;99.90
9640;DHT22;51745;50.872;4.732;2023-04-15T09:23:11;12.40;99.90
9640;DHT22;51745;50.872;4.732;2023-04-15T09:26:02;13.40;99.90
9640;DHT22;51745;50.872;4.732;2023-04-15T09:28:50;13.30;99.90
9640;DHT22;51745;50.872;4.732;2023-04-15T09:31:40;13.50;99.90
9640;DHT22;51745;50.872;4.732;2023-04-15T09:34:34;13.40;99.90
9640;DHT22;51745;50.872;4.732;2023-04-15T09:37:30;13.70;99.90
9640;DHT22;51745;50.872;4.732;2023-04-15T09:40:31;13.50;99.90
9640;DHT22;51745;50.872;4.732;2023-04-15T09:43:20;13.50;99.90
9640;DHT22;51745;50.872;4.732;2023-04-15T09:46:07;14.30;99.90
9640;DHT22;51745;50.872;4.732;2023-04-15T09:49:06;13.60;99.90
9640;DHT22;51745;50.872;4.732;2023-04-15T09:51:56;13.60;99.90
9640;DHT22;51745;50.872;4.732;2023-04-15T09:54:52;13.60;99.90
9640;DHT22;51745;50.872;4.732;2023-04-15T09:57:41;13.90;99.90
9640;DHT22;51745;50.872;4.732;2023-04-15T10:00:32;13.80;99.90
9640;DHT22;51745;50.872;4.732;2023-04-15T10:03:20;13.90;99.90
9640;DHT22;51745;50.872;4.732;2023-04-15T10:06:08;13.80;99.90
9640;DHT22;51745;50.872;4.732;2023-04-15T10:08:56;13.90;99.90
9640;DHT22;51745;50.872;4.732;2023-04-15T10:11:44;14.20;99.90
9640;DHT22;51745;50.872;4.732;2023-04-15T10:14:36;14.50;99.90
9640;DHT22;51745;50.872;4.732;2023-04-15T10:17:25;14.60;99.90
9640;DHT22;51745;50.872;4.732;2023-04-15T10:20:16;14.40;99.90
9640;DHT22;51745;50.872;4.732;2023-04-15T10:23:06;14.80;99.90
9640;DHT22;51745;50.872;4.732;2023-04-15T10:25:58;14.10;99.90
9640;DHT22;51745;50.872;4.732;2023-04-15T10:28:46;13.90;99.90
9640;DHT22;51745;50.872;4.732;2023-04-15T10:31:36;14.00;99.90
9640;DHT22;51745;50.872;4.732;2023-04-15T10:34:24;14.30;99.90
9640;DHT22;51745;50.872;4.732;2023-04-15T10:37:18;14.20;99.90
9640;DHT22;51745;50.872;4.732;2023-04-15T10:43:23;15.00;99.90
9640;DHT22;51745;50.872;4.732;2023-04-15T10:46:12;15.40;99.90
9640;DHT22;51745;50.872;4.732;2023-04-15T10:49:05;14.50;99.90
9640;DHT22;51745;50.872;4.732;2023-04-15T10:51:56;14.50;99.90
9640;DHT22;51745;50.872;4.732;2023-04-15T10:54:44;14.40;99.90
9640;DHT22;51745;50.872;4.732;2023-04-15T10:57:36;14.60;99.90
9640;DHT22;51745;50.872;4.732;2023-04-15T11:00:26;15.10;99.90
9640;DHT22;51745;50.872;4.732;2023-04-15T11:03:30;14.80;99.90
9640;DHT22;51745;50.872;4.732;2023-04-15T11:06:21;15.20;99.90
9640;DHT22;51745;50.872;4.732;2023-04-15T11:09:30;15.50;99.90
9640;DHT22;51745;50.872;4.732;2023-04-15T11:12:18;15.10;99.10
9640;DHT22;51745;50.872;4.732;2023-04-15T11:18:16;15.20;96.70
9640;DHT22;51745;50.872;4.732;2023-04-15T11:21:05;15.60;97.00
9640;DHT22;51745;50.872;4.732;2023-04-15T11:23:55;15.80;96.70
9640;DHT22;51745;50.872;4.732;2023-04-15T11:26:42;15.60;94.80
9640;DHT22;51745;50.872;4.732;2023-04-15T11:29:31;15.80;91.90
9640;DHT22;51745;50.872;4.732;2023-04-15T11:32:18;17.90;95.30
9640;DHT22;51745;50.872;4.732;2023-04-15T11:35:08;18.10;96.40
9640;DHT22;51745;50.872;4.732;2023-04-15T11:37:55;15.80;90.90
9640;DHT22;51745;50.872;4.732;2023-04-15T11:40:49;15.50;90.80
9640;DHT22;51745;50.872;4.732;2023-04-15T11:43:37;15.60;91.80
9640;DHT22;51745;50.872;4.732;2023-04-15T11:46:27;15.40;91.60
9640;DHT22;51745;50.872;4.732;2023-04-15T11:49:25;16.10;92.70
9640;DHT22;51745;50.872;4.732;2023-04-15T11:52:13;16.20;90.20
9640;DHT22;51745;50.872;4.732;2023-04-15T11:55:02;15.50;87.60
9640;DHT22;51745;50.872;4.732;2023-04-15T11:58:06;15.50;89.90
9640;DHT22;51745;50.872;4.732;2023-04-15T12:00:55;15.30;88.50
9640;DHT22;51745;50.872;4.732;2023-04-15T12:03:44;15.50;90.80
9640;DHT22;51745;50.872;4.732;2023-04-15T12:06:33;15.40;90.20
9640;DHT22;51745;50.872;4.732;2023-04-15T12:09:24;16.50;92.40
9640;DHT22;51745;50.872;4.732;2023-04-15T12:12:12;15.70;88.10
9640;DHT22;51745;50.872;4.732;2023-04-15T12:15:01;16.00;90.60
9640;DHT22;51745;50.872;4.732;2023-04-15T12:17:52;16.40;86.10
9640;DHT22;51745;50.872;4.732;2023-04-15T12:20:42;17.80;85.90
9640;DHT22;51745;50.872;4.732;2023-04-15T12:23:30;16.00;84.60
9640;DHT22;51745;50.872;4.732;2023-04-15T12:26:24;16.20;83.40
9640;DHT22;51745;50.872;4.732;2023-04-15T12:29:13;16.20;83.30
9640;DHT22;51745;50.872;4.732;2023-04-15T12:32:07;16.30;89.30
9640;DHT22;51745;50.872;4.732;2023-04-15T12:34:54;17.50;87.50
9640;DHT22;51745;50.872;4.732;2023-04-15T12:37:43;16.80;89.80
9640;DHT22;51745;50.872;4.732;2023-04-15T12:40:30;16.10;90.30
9640;DHT22;51745;50.872;4.732;2023-04-15T12:43:18;16.20;83.50
9640;DHT22;51745;50.872;4.732;2023-04-15T12:46:07;16.30;82.00
9640;DHT22;51745;50.872;4.732;2023-04-15T12:48:56;16.30;84.60
9640;DHT22;51745;50.872;4.732;2023-04-15T12:51:44;16.70;83.10
9640;DHT22;51745;50.872;4.732;2023-04-15T12:54:33;16.60;80.80
9640;DHT22;51745;50.872;4.732;2023-04-15T12:57:21;16.40;75.20
9640;DHT22;51745;50.872;4.732;2023-04-15T13:00:10;14.30;75.30
9640;DHT22;51745;50.872;4.732;2023-04-15T13:02:58;16.50;81.60
9640;DHT22;51745;50.872;4.732;2023-04-15T13:05:51;16.30;83.10
9640;DHT22;51745;50.872;4.732;2023-04-15T13:08:39;16.50;82.90
9640;DHT22;51745;50.872;4.732;2023-04-15T13:11:40;16.40;83.20
9640;DHT22;51745;50.872;4.732;2023-04-15T13:14:28;16.30;81.20
9640;DHT22;51745;50.872;4.732;2023-04-15T13:17:15;16.70;81.90
9640;DHT22;51745;50.872;4.732;2023-04-15T13:20:05;16.20;85.90
9640;DHT22;51745;50.872;4.732;2023-04-15T13:22:57;16.20;87.20
9640;DHT22;51745;50.872;4.732;2023-04-15T13:25:45;16.90;85.50
9640;DHT22;51745;50.872;4.732;2023-04-15T13:28:33;16.70;82.20
9640;DHT22;51745;50.872;4.732;2023-04-15T13:31:24;17.30;84.30
9640;DHT22;51745;50.872;4.732;2023-04-15T13:34:13;18.30;87.30
9640;DHT22;51745;50.872;4.732;2023-04-15T13:37:05;17.40;83.00
9640;DHT22;51745;50.872;4.732;2023-04-15T13:39:54;17.10;78.00
9640;DHT22;51745;50.872;4.732;2023-04-15T13:42:43;18.00;76.70
9640;DHT22;51745;50.872;4.732;2023-04-15T13:45:31;16.00;77.90
9640;DHT22;51745;50.872;4.732;2023-04-15T13:48:22;16.90;82.00
9640;DHT22;51745;50.872;4.732;2023-04-15T13:51:10;17.40;85.30
9640;DHT22;51745;50.872;4.732;2023-04-15T13:53:58;15.80;84.70
9640;DHT22;51745;50.872;4.732;2023-04-15T13:56:47;17.70;83.50
9640;DHT22;51745;50.872;4.732;2023-04-15T13:59:35;18.20;82.90
9640;DHT22;51745;50.872;4.732;2023-04-15T14:02:23;17.50;84.90
9640;DHT22;51745;50.872;4.732;2023-04-15T14:05:12;17.80;86.40
9640;DHT22;51745;50.872;4.732;2023-04-15T14:08:00;19.60;90.00
9640;DHT22;51745;50.872;4.732;2023-04-15T14:10:48;16.70;87.70
9640;DHT22;51745;50.872;4.732;2023-04-15T14:13:37;16.40;91.00
9640;DHT22;51745;50.872;4.732;2023-04-15T14:16:26;16.20;91.00
9640;DHT22;51745;50.872;4.732;2023-04-15T14:19:15;16.40;91.10
9640;DHT22;51745;50.872;4.732;2023-04-15T14:22:02;16.80;89.00
9640;DHT22;51745;50.872;4.732;2023-04-15T14:24:50;16.70;87.50
9640;DHT22;51745;50.872;4.732;2023-04-15T14:27:39;16.40;90.70
9640;DHT22;51745;50.872;4.732;2023-04-15T14:30:29;15.60;91.30
9640;DHT22;51745;50.872;4.732;2023-04-15T14:33:18;15.40;92.00
9640;DHT22;51745;50.872;4.732;2023-04-15T14:36:05;15.60;92.80
9640;DHT22;51745;50.872;4.732;2023-04-15T14:38:56;15.90;92.30
9640;DHT22;51745;50.872;4.732;2023-04-15T14:41:44;16.30;92.80
9640;DHT22;51745;50.872;4.732;2023-04-15T14:44:32;15.80;93.10
9640;DHT22;51745;50.872;4.732;2023-04-15T14:47:24;15.60;93.20
9640;DHT22;51745;50.872;4.732;2023-04-15T14:50:12;15.70;94.70
9640;DHT22;51745;50.872;4.732;2023-04-15T14:53:00;15.40;95.30
9640;DHT22;51745;50.872;4.732;2023-04-15T14:55:48;15.20;94.00
9640;DHT22;51745;50.872;4.732;2023-04-15T14:58:36;14.80;94.50
9640;DHT22;51745;50.872;4.732;2023-04-15T15:01:24;15.40;96.30
9640;DHT22;51745;50.872;4.732;2023-04-15T15:04:17;15.50;93.50
9640;DHT22;51745;50.872;4.732;2023-04-15T15:07:09;16.00;92.00
9640;DHT22;51745;50.872;4.732;2023-04-15T15:09:59;15.40;91.10
9640;DHT22;51745;50.872;4.732;2023-04-15T15:12:47;15.30;89.70
9640;DHT22;51745;50.872;4.732;2023-04-15T15:15:36;15.20;90.60
9640;DHT22;51745;50.872;4.732;2023-04-15T15:18:25;15.20;89.20
9640;DHT22;51745;50.872;4.732;2023-04-15T15:21:14;15.20;88.70
9640;DHT22;51745;50.872;4.732;2023-04-15T15:24:01;15.10;89.10
9640;DHT22;51745;50.872;4.732;2023-04-15T15:26:51;14.40;90.30
9640;DHT22;51745;50.872;4.732;2023-04-15T15:29:39;14.20;93.00
9640;DHT22;51745;50.872;4.732;2023-04-15T15:32:27;14.70;94.30
9640;DHT22;51745;50.872;4.732;2023-04-15T15:35:15;14.80;94.00
9640;DHT22;51745;50.872;4.732;2023-04-15T15:38:03;15.40;93.70
9640;DHT22;51745;50.872;4.732;2023-04-15T15:40:52;16.30;94.20
9640;DHT22;51745;50.872;4.732;2023-04-15T15:43:41;15.40;93.90
9640;DHT22;51745;50.872;4.732;2023-04-15T15:46:29;14.80;92.10
9640;DHT22;51745;50.872;4.732;2023-04-15T15:49:18;15.20;94.10
9640;DHT22;51745;50.872;4.732;2023-04-15T15:52:06;15.40;93.50
9640;DHT22;51745;50.872;4.732;2023-04-15T15:54:56;15.30;95.10
9640;DHT22;51745;50.872;4.732;2023-04-15T15:57:44;15.30;94.70
9640;DHT22;51745;50.872;4.732;2023-04-15T16:00:32;15.10;94.10
9640;DHT22;51745;50.872;4.732;2023-04-15T16:03:20;14.80;95.00
9640;DHT22;51745;50.872;4.732;2023-04-15T16:06:08;14.40;94.00
9640;DHT22;51745;50.872;4.732;2023-04-15T16:08:56;14.50;95.20
9640;DHT22;51745;50.872;4.732;2023-04-15T16:11:46;14.70;94.00
9640;DHT22;51745;50.872;4.732;2023-04-15T16:14:34;15.50;94.80
9640;DHT22;51745;50.872;4.732;2023-04-15T16:17:22;14.30;94.70
9640;DHT22;51745;50.872;4.732;2023-04-15T16:20:10;14.40;95.90
9640;DHT22;51745;50.872;4.732;2023-04-15T16:22:58;15.00;97.40
9640;DHT22;51745;50.872;4.732;2023-04-15T16:25:47;14.20;96.20
9640;DHT22;51745;50.872;4.732;2023-04-15T16:28:36;15.40;96.60
9640;DHT22;51745;50.872;4.732;2023-04-15T16:31:28;15.50;95.90
9640;DHT22;51745;50.872;4.732;2023-04-15T16:34:16;15.50;95.20
9640;DHT22;51745;50.872;4.732;2023-04-15T16:37:05;15.20;95.60
9640;DHT22;51745;50.872;4.732;2023-04-15T16:39:58;14.80;95.80
9640;DHT22;51745;50.872;4.732;2023-04-15T16:42:48;14.50;96.50
9640;DHT22;51745;50.872;4.732;2023-04-15T16:45:37;14.30;97.40
9640;DHT22;51745;50.872;4.732;2023-04-15T16:48:26;15.20;98.40
9640;DHT22;51745;50.872;4.732;2023-04-15T16:51:14;13.70;97.70
9640;DHT22;51745;50.872;4.732;2023-04-15T16:54:01;13.90;97.50
9640;DHT22;51745;50.872;4.732;2023-04-15T16:56:49;14.20;98.20
9640;DHT22;51745;50.872;4.732;2023-04-15T16:59:41;14.00;98.00
9640;DHT22;51745;50.872;4.732;2023-04-15T17:02:29;13.90;98.00
9640;DHT22;51745;50.872;4.732;2023-04-15T17:05:19;13.80;98.80
9640;DHT22;51745;50.872;4.732;2023-04-15T17:08:07;13.80;98.50
9640;DHT22;51745;50.872;4.732;2023-04-15T17:10:56;13.90;98.60
9640;DHT22;51745;50.872;4.732;2023-04-15T17:13:43;14.00;97.70
9640;DHT22;51745;50.872;4.732;2023-04-15T17:16:31;13.50;97.10
9640;DHT22;51745;50.872;4.732;2023-04-15T17:19:20;11.70;96.80
9640;DHT22;51745;50.872;4.732;2023-04-15T17:22:08;13.40;98.80
9640;DHT22;51745;50.872;4.732;2023-04-15T17:24:56;13.90;99.10
9640;DHT22;51745;50.872;4.732;2023-04-15T17:27:44;13.30;99.00
9640;DHT22;51745;50.872;4.732;2023-04-15T17:30:32;13.40;99.20
9640;DHT22;51745;50.872;4.732;2023-04-15T17:33:19;13.30;99.90
9640;DHT22;51745;50.872;4.732;2023-04-15T17:36:29;15.90;99.90
9640;DHT22;51745;50.872;4.732;2023-04-15T17:39:16;16.00;99.90
9640;DHT22;51745;50.872;4.732;2023-04-15T17:42:08;13.30;99.90
9640;DHT22;51745;50.872;4.732;2023-04-15T17:44:55;13.20;99.90
9640;DHT22;51745;50.872;4.732;2023-04-15T17:47:43;13.00;99.90
9640;DHT22;51745;50.872;4.732;2023-04-15T17:50:31;12.20;99.90
9640;DHT22;51745;50.872;4.732;2023-04-15T17:53:20;12.60;99.90
9640;DHT22;51745;50.872;4.732;2023-04-15T17:56:07;13.00;99.90
9640;DHT22;51745;50.872;4.732;2023-04-15T17:58:55;12.50;99.90
9640;DHT22;51745;50.872;4.732;2023-04-15T18:01:43;12.40;99.90
9640;DHT22;51745;50.872;4.732;2023-04-15T18:04:31;12.40;99.90
9640;DHT22;51745;50.872;4.732;2023-04-15T18:07:19;12.40;99.90
9640;DHT22;51745;50.872;4.732;2023-04-15T18:10:09;15.20;99.90
9640;DHT22;51745;50.872;4.732;2023-04-15T18:13:00;12.10;99.90
9640;DHT22;51745;50.872;4.732;2023-04-15T18:15:48;11.90;99.90
9640;DHT22;51745;50.872;4.732;2023-04-15T18:18:37;11.90;99.90
9640;DHT22;51745;50.872;4.732;2023-04-15T18:21:26;12.20;99.90